Time;durP1;ratioP1;P1;durP2;ratioP2;P2;SDS_P1;SDS_P2;PMS_P1;PMS_P2;Temp;Humidity;BMP_temperature;BMP_pressure;BME280_temperature;BME280_humidity;BME280_pressure;Samples;Min_cycle;Max_cycle;Signal;HPM_P1;HPM_P2
2022/07/15 00:00:10;;;;;;;6.82;2.70;;;;;;;;;;4943178;29;20039;-83
2022/07/15 00:02:36;;;;;;;7.75;3.17;;;;;;;;;;4942928;29;20527;-83
2022/07/15 00:05:02;;;;;;;8.35;2.92;;;;;;;;;;4942507;29;20075;-84
2022/07/15 00:07:28;;;;;;;7.30;2.92;;;;;;;;;;4942119;29;20122;-84
2022/07/15 00:12:37;;;;;;;5.38;3.15;;;;;;;;;;4942733;29;20046;-84
2022/07/15 00:15:03;;;;;;;6.68;3.30;;;;;;;;;;4942141;29;20115;-84
2022/07/15 00:17:29;;;;;;;6.82;3.20;;;;;;;;;;4941528;29;20028;-84
2022/07/15 00:19:54;;;;;;;13.10;3.00;;;;;;;;;;4942102;29;20056;-84
2022/07/15 00:22:20;;;;;;;9.10;3.00;;;;;;;;;;4942498;29;20413;-84
2022/07/15 00:24:46;;;;;;;3.97;3.00;;;;;;;;;;4942173;29;20050;-84
2022/07/15 00:27:11;;;;;;;4.03;3.08;;;;;;;;;;4942201;29;20031;-83
2022/07/15 00:29:37;;;;;;;5.45;3.20;;;;;;;;;;4941898;29;20038;-83
2022/07/15 00:32:03;;;;;;;5.88;3.20;;;;;;;;;;4942748;29;20039;-83
2022/07/15 00:34:29;;;;;;;5.47;3.15;;;;;;;;;;4940506;29;20071;-83
2022/07/15 00:36:54;;;;;;;6.75;3.20;;;;;;;;;;4956820;29;20046;-83
2022/07/15 00:39:20;;;;;;;4.65;2.95;;;;;;;;;;4941104;29;20083;-83
2022/07/15 00:41:47;;;;;;;4.22;2.78;;;;;;;;;;4941128;29;20040;-84
2022/07/15 00:44:13;;;;;;;5.28;3.00;;;;;;;;;;4924113;29;20065;-85
2022/07/15 00:46:39;;;;;;;6.20;3.50;;;;;;;;;;4941549;29;20043;-84
2022/07/15 00:49:07;;;;;;;3.78;2.90;;;;;;;;;;4956141;29;20035;-84
2022/07/15 00:51:45;;;;;;;7.53;3.10;;;;;;;;;;4940505;29;20416;-84
2022/07/15 00:54:15;;;;;;;4.60;3.30;;;;;;;;;;4940794;29;20086;-84
2022/07/15 00:56:48;;;;;;;5.88;3.30;;;;;;;;;;4941591;29;20039;-84
2022/07/15 00:59:15;;;;;;;4.30;3.03;;;;;;;;;;4941651;29;20047;-84
2022/07/15 01:01:45;;;;;;;5.45;2.90;;;;;;;;;;4924552;29;20034;-83
2022/07/15 01:04:12;;;;;;;3.53;3.13;;;;;;;;;;4940474;29;20501;-84
2022/07/15 01:06:39;;;;;;;3.55;3.05;;;;;;;;;;4940331;29;20050;-84
2022/07/15 01:09:05;;;;;;;6.57;2.88;;;;;;;;;;4955164;29;20031;-84
2022/07/15 01:11:31;;;;;;;4.75;3.15;;;;;;;;;;4940402;29;20036;-84
2022/07/15 01:13:59;;;;;;;3.92;3.00;;;;;;;;;;4956256;29;20036;-83
2022/07/15 01:16:26;;;;;;;7.25;3.30;;;;;;;;;;4955928;29;20055;-84
2022/07/15 01:18:52;;;;;;;5.13;3.10;;;;;;;;;;4955730;29;20036;-84
2022/07/15 01:21:18;;;;;;;4.35;3.08;;;;;;;;;;4941308;29;20115;-84
2022/07/15 01:23:46;;;;;;;5.32;3.22;;;;;;;;;;4940216;29;20035;-84
2022/07/15 01:26:28;;;;;;;5.57;3.50;;;;;;;;;;4956564;29;20032;-84
2022/07/15 01:28:53;;;;;;;5.95;3.05;;;;;;;;;;4956889;29;20046;-84
2022/07/15 01:31:22;;;;;;;7.57;3.38;;;;;;;;;;4939011;29;20066;-84
2022/07/15 01:33:47;;;;;;;5.90;3.15;;;;;;;;;;4955534;29;20047;-83
2022/07/15 01:36:13;;;;;;;6.78;3.10;;;;;;;;;;4955839;29;20124;-84
2022/07/15 01:38:44;;;;;;;6.20;3.72;;;;;;;;;;4939967;29;20054;-84
2022/07/15 01:41:09;;;;;;;5.65;3.60;;;;;;;;;;4956049;28;20071;-83
2022/07/15 01:43:35;;;;;;;8.25;4.20;;;;;;;;;;4956364;29;20027;-83
2022/07/15 01:46:01;;;;;;;5.47;3.90;;;;;;;;;;4939726;29;20509;-83
2022/07/15 01:51:41;;;;;;;6.70;3.75;;;;;;;;;;4955751;29;20404;-83
2022/07/15 01:54:07;;;;;;;6.03;3.53;;;;;;;;;;4959346;29;20504;-83
2022/07/15 01:56:33;;;;;;;5.85;3.78;;;;;;;;;;4966210;29;20126;-84
2022/07/15 01:58:59;;;;;;;4.90;3.70;;;;;;;;;;4966129;29;20051;-83
2022/07/15 02:01:25;;;;;;;6.28;3.72;;;;;;;;;;4962677;28;20047;-83
2022/07/15 02:03:51;;;;;;;5.82;4.15;;;;;;;;;;4949676;29;20027;-83
2022/07/15 02:06:17;;;;;;;6.68;3.65;;;;;;;;;;4959259;29;20115;-83
2022/07/15 02:08:42;;;;;;;6.57;3.38;;;;;;;;;;4959349;29;20075;-83
2022/07/15 02:11:11;;;;;;;4.38;3.17;;;;;;;;;;4959674;29;20042;-83
2022/07/15 02:13:37;;;;;;;6.85;3.50;;;;;;;;;;4959057;29;20015;-84
2022/07/15 02:16:04;;;;;;;11.77;4.97;;;;;;;;;;4943511;29;20094;-84
2022/07/15 02:18:29;;;;;;;8.57;4.43;;;;;;;;;;4943197;29;20524;-84
2022/07/15 02:20:55;;;;;;;7.43;4.05;;;;;;;;;;4959266;29;20043;-84
2022/07/15 02:23:21;;;;;;;9.63;4.40;;;;;;;;;;4943486;29;20065;-84
2022/07/15 02:25:47;;;;;;;6.75;4.15;;;;;;;;;;4944671;29;20031;-85
2022/07/15 02:28:13;;;;;;;5.95;3.80;;;;;;;;;;4926899;29;20099;-85
2022/07/15 02:30:40;;;;;;;7.47;4.35;;;;;;;;;;4942740;29;20031;-84
2022/07/15 02:33:07;;;;;;;8.13;4.60;;;;;;;;;;4942694;29;20028;-84
2022/07/15 02:35:33;;;;;;;6.18;4.15;;;;;;;;;;4958358;29;20493;-84
2022/07/15 02:37:59;;;;;;;8.18;4.40;;;;;;;;;;4942601;29;20068;-84
2022/07/15 02:40:26;;;;;;;5.82;4.18;;;;;;;;;;4958766;29;20067;-84
2022/07/15 02:42:55;;;;;;;7.80;4.35;;;;;;;;;;4942815;29;20042;-84
2022/07/15 02:45:23;;;;;;;6.88;4.18;;;;;;;;;;4942688;29;20039;-84
2022/07/15 02:47:49;;;;;;;7.32;4.55;;;;;;;;;;4943496;29;20032;-84
2022/07/15 02:50:22;;;;;;;5.35;4.00;;;;;;;;;;4942495;29;20107;-84
2022/07/15 02:52:49;;;;;;;7.00;4.25;;;;;;;;;;4958916;29;20113;-84
2022/07/15 02:55:15;;;;;;;5.90;4.05;;;;;;;;;;4958320;29;20039;-84
2022/07/15 02:57:41;;;;;;;7.63;4.60;;;;;;;;;;4958268;29;20064;-84
2022/07/15 03:00:11;;;;;;;5.22;4.20;;;;;;;;;;4958282;29;20047;-84
2022/07/15 03:02:37;;;;;;;6.32;4.20;;;;;;;;;;4942763;29;20040;-84
2022/07/15 03:05:07;;;;;;;7.75;4.47;;;;;;;;;;4941925;29;20059;-84
2022/07/15 03:07:34;;;;;;;7.07;4.20;;;;;;;;;;4942405;29;20043;-84
2022/07/15 03:09:59;;;;;;;6.50;4.20;;;;;;;;;;4942201;29;20035;-85
2022/07/15 03:12:25;;;;;;;6.00;4.28;;;;;;;;;;4941088;29;20034;-85
2022/07/15 03:14:54;;;;;;;6.40;4.30;;;;;;;;;;4957601;29;20032;-85
2022/07/15 03:17:19;;;;;;;7.45;4.85;;;;;;;;;;4941551;29;20039;-84
2022/07/15 03:19:45;;;;;;;7.88;4.63;;;;;;;;;;4925992;29;20046;-84
2022/07/15 03:22:10;;;;;;;5.90;4.50;;;;;;;;;;4957927;29;20035;-84
2022/07/15 03:24:36;;;;;;;6.55;4.18;;;;;;;;;;4941025;29;20042;-84
2022/07/15 03:27:02;;;;;;;6.60;4.40;;;;;;;;;;4941562;29;20063;-84
2022/07/15 03:29:29;;;;;;;7.05;4.60;;;;;;;;;;4942062;29;20107;-84
2022/07/15 03:31:56;;;;;;;8.80;4.53;;;;;;;;;;4942981;29;20492;-84
2022/07/15 03:34:27;;;;;;;7.38;4.38;;;;;;;;;;4941382;29;20039;-83
2022/07/15 03:36:54;;;;;;;5.97;3.92;;;;;;;;;;4957647;29;20027;-84
2022/07/15 03:39:21;;;;;;;8.30;4.10;;;;;;;;;;4941939;29;20442;-84
2022/07/15 03:41:47;;;;;;;7.72;4.05;;;;;;;;;;4958098;29;20067;-83
2022/07/15 03:44:13;;;;;;;5.68;4.10;;;;;;;;;;4942832;29;20036;-84
2022/07/15 03:46:39;;;;;;;7.38;4.50;;;;;;;;;;4941911;29;20103;-83
2022/07/15 03:49:05;;;;;;;7.82;4.18;;;;;;;;;;4957635;29;20099;-84
2022/07/15 03:51:32;;;;;;;9.70;4.70;;;;;;;;;;4925909;29;20103;-83
2022/07/15 03:53:59;;;;;;;7.82;4.90;;;;;;;;;;4956656;29;20039;-83
2022/07/15 03:56:26;;;;;;;7.85;4.60;;;;;;;;;;4925354;29;20049;-83
2022/07/15 03:58:51;;;;;;;9.45;4.13;;;;;;;;;;4942315;29;20040;-83
2022/07/15 04:01:17;;;;;;;9.07;4.25;;;;;;;;;;4940863;29;20126;-83
2022/07/15 04:03:43;;;;;;;7.07;4.15;;;;;;;;;;4957899;29;20031;-82
2022/07/15 04:06:08;;;;;;;9.55;5.80;;;;;;;;;;4956804;29;20043;-83
2022/07/15 04:08:34;;;;;;;10.63;4.85;;;;;;;;;;4957288;29;20173;-83
2022/07/15 04:10:59;;;;;;;8.02;4.90;;;;;;;;;;4941665;29;20409;-83
2022/07/15 04:13:25;;;;;;;6.85;4.45;;;;;;;;;;4957464;29;20039;-83
2022/07/15 04:15:51;;;;;;;6.72;4.00;;;;;;;;;;4957150;29;20035;-84
2022/07/15 04:18:17;;;;;;;7.28;4.35;;;;;;;;;;4940733;29;20047;-84
2022/07/15 04:20:42;;;;;;;7.80;4.63;;;;;;;;;;4957155;29;20044;-83
2022/07/15 04:23:08;;;;;;;10.77;4.55;;;;;;;;;;4941127;29;20019;-82
2022/07/15 04:25:34;;;;;;;5.53;3.80;;;;;;;;;;4940500;29;20040;-83
2022/07/15 04:27:59;;;;;;;6.80;4.18;;;;;;;;;;4956880;29;20035;-84
2022/07/15 04:30:28;;;;;;;6.35;4.30;;;;;;;;;;4956365;29;20038;-84
2022/07/15 04:32:54;;;;;;;6.20;4.15;;;;;;;;;;4957209;29;20484;-83
2022/07/15 04:35:23;;;;;;;6.88;4.10;;;;;;;;;;4956684;29;20035;-83
2022/07/15 04:37:57;;;;;;;6.85;4.25;;;;;;;;;;4956787;29;20036;-84
2022/07/15 04:40:23;;;;;;;6.57;3.90;;;;;;;;;;4940689;29;20066;-82
2022/07/15 04:42:51;;;;;;;6.13;4.18;;;;;;;;;;4940890;29;20031;-83
2022/07/15 04:45:17;;;;;;;6.15;4.30;;;;;;;;;;4957323;29;20038;-83
2022/07/15 04:47:43;;;;;;;7.20;4.22;;;;;;;;;;4956801;29;20118;-84
2022/07/15 04:52:58;;;;;;;7.07;4.53;;;;;;;;;;4956450;29;20062;-84
2022/07/15 04:55:24;;;;;;;7.30;4.22;;;;;;;;;;4939567;29;20035;-84
2022/07/15 04:57:59;;;;;;;5.80;4.40;;;;;;;;;;4940109;29;20031;-84
2022/07/15 05:00:26;;;;;;;8.65;4.72;;;;;;;;;;4956671;29;20047;-84
2022/07/15 05:02:52;;;;;;;10.13;4.63;;;;;;;;;;4940359;29;20036;-83
2022/07/15 05:05:18;;;;;;;7.13;4.57;;;;;;;;;;4940838;29;20099;-83
2022/07/15 05:07:45;;;;;;;6.88;4.47;;;;;;;;;;4940240;29;20024;-84
2022/07/15 05:10:11;;;;;;;7.60;4.93;;;;;;;;;;4956302;29;20385;-84
2022/07/15 05:12:40;;;;;;;8.20;4.90;;;;;;;;;;4939889;29;20164;-83
2022/07/15 05:15:06;;;;;;;9.13;4.55;;;;;;;;;;4940833;29;20047;-83
2022/07/15 05:17:33;;;;;;;7.13;4.35;;;;;;;;;;4939738;29;20047;-83
2022/07/15 05:19:59;;;;;;;6.25;4.40;;;;;;;;;;4940523;29;20413;-83
2022/07/15 05:22:25;;;;;;;8.60;4.60;;;;;;;;;;4940329;29;20131;-83
2022/07/15 05:24:51;;;;;;;6.95;4.68;;;;;;;;;;4939623;29;20035;-84
2022/07/15 05:27:16;;;;;;;8.27;4.95;;;;;;;;;;4955704;29;20070;-84
2022/07/15 05:29:46;;;;;;;8.13;5.25;;;;;;;;;;4941438;29;20058;-84
2022/07/15 05:32:11;;;;;;;10.10;5.20;;;;;;;;;;4941512;29;20027;-84
2022/07/15 05:34:37;;;;;;;7.22;4.85;;;;;;;;;;4939163;29;20039;-84
2022/07/15 05:37:05;;;;;;;7.07;4.95;;;;;;;;;;4955322;29;20043;-84
2022/07/15 05:39:34;;;;;;;6.65;4.43;;;;;;;;;;4955604;29;20489;-84
2022/07/15 05:41:59;;;;;;;7.45;4.70;;;;;;;;;;4939798;29;20035;-84
2022/07/15 05:44:28;;;;;;;6.43;4.40;;;;;;;;;;4955402;29;20092;-84
2022/07/15 05:46:53;;;;;;;6.70;4.70;;;;;;;;;;4956019;29;20043;-83
2022/07/15 05:49:21;;;;;;;6.90;4.28;;;;;;;;;;4955782;29;20464;-83
2022/07/15 05:51:50;;;;;;;9.32;4.70;;;;;;;;;;4939419;29;20031;-84
2022/07/15 05:54:16;;;;;;;8.23;5.00;;;;;;;;;;4954786;29;20043;-84
2022/07/15 05:56:42;;;;;;;8.25;5.18;;;;;;;;;;4940485;29;20043;-83
2022/07/15 05:59:11;;;;;;;6.47;4.45;;;;;;;;;;4939603;29;20112;-85
2022/07/15 06:01:37;;;;;;;9.20;5.00;;;;;;;;;;4955764;29;20070;-84
2022/07/15 06:04:02;;;;;;;6.65;4.60;;;;;;;;;;4955663;29;20036;-85
2022/07/15 06:06:28;;;;;;;6.63;4.60;;;;;;;;;;4924359;29;20047;-85
2022/07/15 06:08:53;;;;;;;9.05;4.80;;;;;;;;;;4955774;29;20038;-85
2022/07/15 06:11:22;;;;;;;6.70;4.80;;;;;;;;;;4954876;29;20035;-84
2022/07/15 06:13:49;;;;;;;10.45;5.10;;;;;;;;;;4938704;29;20134;-84
2022/07/15 06:16:15;;;;;;;6.43;4.70;;;;;;;;;;4939615;29;20074;-84
2022/07/15 06:18:42;;;;;;;6.40;4.97;;;;;;;;;;4939368;29;20035;-85
2022/07/15 06:21:08;;;;;;;6.28;4.95;;;;;;;;;;4940449;29;20032;-84
2022/07/15 06:23:34;;;;;;;7.18;4.97;;;;;;;;;;4939735;29;20485;-85
2022/07/15 06:25:59;;;;;;;7.47;4.70;;;;;;;;;;4956365;29;20437;-85
2022/07/15 06:28:25;;;;;;;7.78;4.75;;;;;;;;;;4955844;29;20397;-84
2022/07/15 06:30:50;;;;;;;7.90;5.15;;;;;;;;;;4940516;29;20059;-85
2022/07/15 06:33:16;;;;;;;7.72;4.85;;;;;;;;;;4955316;29;20039;-86
2022/07/15 06:35:41;;;;;;;8.18;4.97;;;;;;;;;;4940221;29;20031;-85
2022/07/15 06:38:07;;;;;;;7.55;4.35;;;;;;;;;;4938755;29;20036;-86
2022/07/15 06:40:33;;;;;;;5.97;3.63;;;;;;;;;;4956878;29;20115;-86
2022/07/15 06:42:59;;;;;;;6.53;4.65;;;;;;;;;;4955940;28;20572;-85
2022/07/15 06:45:44;;;;;;;7.22;4.40;;;;;;;;;;4940623;29;20060;-84
2022/07/15 06:48:09;;;;;;;7.45;4.60;;;;;;;;;;4956680;28;20027;-84
2022/07/15 06:50:35;;;;;;;7.32;5.05;;;;;;;;;;4942415;29;20556;-84
2022/07/15 06:53:02;;;;;;;7.47;4.72;;;;;;;;;;4944405;29;20039;-84
2022/07/15 06:55:28;;;;;;;5.57;4.72;;;;;;;;;;4942629;29;20036;-84
2022/07/15 06:57:54;;;;;;;8.32;4.55;;;;;;;;;;4959093;29;20108;-84
2022/07/15 07:00:20;;;;;;;7.10;4.20;;;;;;;;;;4959090;29;20191;-84
2022/07/15 07:02:46;;;;;;;6.30;4.03;;;;;;;;;;4959752;29;20024;-85
2022/07/15 07:05:12;;;;;;;7.25;4.13;;;;;;;;;;4959038;29;20058;-84
2022/07/15 07:07:38;;;;;;;6.53;3.88;;;;;;;;;;4926372;29;20032;-84
2022/07/15 07:10:04;;;;;;;6.78;3.90;;;;;;;;;;4944213;29;20050;-84
2022/07/15 07:12:30;;;;;;;6.05;3.78;;;;;;;;;;4959154;29;20031;-84
2022/07/15 07:14:56;;;;;;;7.20;4.20;;;;;;;;;;4943963;29;20559;-83
2022/07/15 07:17:21;;;;;;;6.63;4.15;;;;;;;;;;4943868;29;20563;-83
2022/07/15 07:19:47;;;;;;;6.57;4.00;;;;;;;;;;4943899;29;20016;-83
2022/07/15 07:22:12;;;;;;;6.40;3.97;;;;;;;;;;4943199;29;20050;-85
2022/07/15 07:24:38;;;;;;;5.80;3.38;;;;;;;;;;4959532;29;20055;-83
2022/07/15 07:27:04;;;;;;;6.25;3.92;;;;;;;;;;4958785;29;20412;-84
2022/07/15 07:29:30;;;;;;;6.53;3.70;;;;;;;;;;4945243;29;20028;-84
2022/07/15 07:31:55;;;;;;;5.63;3.78;;;;;;;;;;4959056;29;20039;-85
2022/07/15 07:34:21;;;;;;;6.78;4.03;;;;;;;;;;4943997;29;20066;-85
2022/07/15 07:36:48;;;;;;;6.57;4.20;;;;;;;;;;4943680;29;20027;-85
2022/07/15 07:39:13;;;;;;;5.57;3.85;;;;;;;;;;4944261;29;20114;-85
2022/07/15 07:41:40;;;;;;;5.70;3.80;;;;;;;;;;4943198;29;20501;-85
2022/07/15 07:44:06;;;;;;;6.07;3.58;;;;;;;;;;4944323;29;20154;-85
2022/07/15 07:46:32;;;;;;;6.18;3.90;;;;;;;;;;4944840;29;20473;-85
2022/07/15 07:48:58;;;;;;;8.50;3.95;;;;;;;;;;4944687;29;20115;-85
2022/07/15 07:51:24;;;;;;;8.13;4.30;;;;;;;;;;4943680;29;20078;-85
2022/07/15 07:53:49;;;;;;;7.63;4.07;;;;;;;;;;4943269;29;20079;-86
2022/07/15 07:56:15;;;;;;;7.25;3.95;;;;;;;;;;4942186;29;20087;-85
2022/07/15 07:58:40;;;;;;;6.07;3.90;;;;;;;;;;4941297;29;20086;-84
2022/07/15 08:01:06;;;;;;;5.88;4.00;;;;;;;;;;4943205;29;20048;-86
2022/07/15 08:03:32;;;;;;;7.38;4.10;;;;;;;;;;4943540;29;20075;-85
2022/07/15 08:06:01;;;;;;;6.15;3.95;;;;;;;;;;4942992;29;20035;-82
2022/07/15 08:08:26;;;;;;;6.55;4.03;;;;;;;;;;4943236;29;20032;-85
2022/07/15 08:10:57;;;;;;;5.18;3.90;;;;;;;;;;4939930;29;20042;-83
2022/07/15 08:13:24;;;;;;;7.45;4.32;;;;;;;;;;4942686;29;20462;-85
2022/07/15 08:15:53;;;;;;;5.03;3.80;;;;;;;;;;4939748;29;20043;-85
2022/07/15 08:18:19;;;;;;;7.43;4.20;;;;;;;;;;4941602;29;20075;-84
2022/07/15 08:20:44;;;;;;;7.38;4.03;;;;;;;;;;4941312;29;20044;-85
2022/07/15 08:23:10;;;;;;;4.95;3.63;;;;;;;;;;4940859;29;20032;-85
2022/07/15 08:25:37;;;;;;;6.30;4.10;;;;;;;;;;4942047;29;20118;-84
2022/07/15 08:28:04;;;;;;;6.35;3.65;;;;;;;;;;4942716;29;20067;-85
2022/07/15 08:30:30;;;;;;;9.05;3.90;;;;;;;;;;4941583;29;20039;-86
2022/07/15 08:32:57;;;;;;;12.93;4.40;;;;;;;;;;4959836;29;20035;-85
2022/07/15 08:35:23;;;;;;;5.03;3.60;;;;;;;;;;4944438;29;20039;-86
2022/07/15 08:37:49;;;;;;;7.10;3.70;;;;;;;;;;5005095;23;20042;-85
2022/07/15 08:40:16;;;;;;;5.32;3.72;;;;;;;;;;5006157;28;20046;-84
2022/07/15 08:42:43;;;;;;;8.27;4.05;;;;;;;;;;5006307;28;20046;-86
2022/07/15 08:45:10;;;;;;;5.38;3.42;;;;;;;;;;5003639;28;20038;-86
2022/07/15 08:48:29;;;;;;;8.35;3.60;;;;;;;;;;5072709;23;20113;-86
2022/07/15 08:51:09;;;;;;;5.80;3.85;;;;;;;;;;5018208;28;20052;-85
2022/07/15 08:53:35;;;;;;;6.78;4.00;;;;;;;;;;5024180;28;20038;-86
2022/07/15 08:56:02;;;;;;;5.68;3.60;;;;;;;;;;5023861;28;20077;-85
2022/07/15 08:58:28;;;;;;;7.40;4.00;;;;;;;;;;5025131;28;20018;-85
2022/07/15 09:00:54;;;;;;;6.40;3.47;;;;;;;;;;5024466;28;20129;-84
2022/07/15 09:03:20;;;;;;;6.20;3.80;;;;;;;;;;5025076;28;20025;-85
2022/07/15 09:05:45;;;;;;;7.00;3.90;;;;;;;;;;5023396;28;20048;-85
2022/07/15 09:08:14;;;;;;;8.45;4.13;;;;;;;;;;5025772;28;20069;-84
2022/07/15 09:10:47;;;;;;;5.35;3.90;;;;;;;;;;5022902;28;20053;-86
2022/07/15 09:13:23;;;;;;;6.50;3.90;;;;;;;;;;5024976;28;20044;-86
2022/07/15 09:15:50;;;;;;;7.75;3.65;;;;;;;;;;5026356;28;20033;-85
2022/07/15 09:18:18;;;;;;;5.28;4.00;;;;;;;;;;5025504;28;20053;-86
2022/07/15 09:20:45;;;;;;;6.70;4.00;;;;;;;;;;5027107;28;20084;-86
2022/07/15 09:23:16;;;;;;;6.65;4.00;;;;;;;;;;5026054;28;20120;-86
2022/07/15 09:25:41;;;;;;;7.53;4.57;;;;;;;;;;5025773;28;20084;-86
2022/07/15 09:28:08;;;;;;;6.78;4.60;;;;;;;;;;5026315;28;20033;-86
2022/07/15 09:33:40;;;;;;;7.90;4.30;;;;;;;;;;5026525;28;20044;-85
2022/07/15 09:36:20;;;;;;;5.55;3.97;;;;;;;;;;5026591;28;20053;-85
2022/07/15 09:38:57;;;;;;;6.10;4.28;;;;;;;;;;5025358;28;20034;-85
2022/07/15 09:41:32;;;;;;;7.57;4.00;;;;;;;;;;5026410;28;20513;-86
2022/07/15 09:44:01;;;;;;;7.07;4.13;;;;;;;;;;5027131;28;20091;-84
2022/07/15 09:46:43;;;;;;;7.30;4.45;;;;;;;;;;5007894;28;20037;-86
2022/07/15 09:49:31;;;;;;;7.10;3.97;;;;;;;;;;5024147;28;20034;-85
2022/07/15 09:52:01;;;;;;;6.65;4.40;;;;;;;;;;5023240;28;20072;-86
2022/07/15 09:54:32;;;;;;;6.10;4.20;;;;;;;;;;5024720;28;20042;-84
2022/07/15 09:57:09;;;;;;;7.45;4.47;;;;;;;;;;5023937;28;20042;-85
2022/07/15 09:59:35;;;;;;;8.80;4.60;;;;;;;;;;5024497;28;20104;-84
2022/07/15 10:02:01;;;;;;;6.30;4.43;;;;;;;;;;5024433;28;20084;-84
2022/07/15 10:04:29;;;;;;;8.40;5.18;;;;;;;;;;5025571;28;20030;-85
2022/07/15 10:06:59;;;;;;;7.10;4.88;;;;;;;;;;5023329;28;20042;-83
2022/07/15 10:09:28;;;;;;;7.53;4.50;;;;;;;;;;5025423;28;20100;-85
2022/07/15 10:11:57;;;;;;;6.57;4.75;;;;;;;;;;5023254;28;20049;-85
2022/07/15 10:14:38;;;;;;;6.90;4.72;;;;;;;;;;5022185;28;20598;-85
2022/07/15 10:28:04;;;;;;;8.25;5.07;;;;;;;;;;5091902;22;20054;-85
2022/07/15 10:30:30;;;;;;;7.50;5.07;;;;;;;;;;5023965;28;20048;-83
2022/07/15 10:33:14;;;;;;;6.70;5.30;;;;;;;;;;5021357;28;20034;-85
2022/07/15 10:35:52;;;;;;;6.15;4.65;;;;;;;;;;5019160;28;20034;-84
2022/07/15 10:38:23;;;;;;;7.47;5.00;;;;;;;;;;5022359;28;20121;-85
2022/07/15 10:41:02;;;;;;;7.78;5.55;;;;;;;;;;5020294;28;20053;-85
2022/07/15 10:43:50;;;;;;;9.73;5.13;;;;;;;;;;5021520;28;20041;-85
2022/07/15 10:46:16;;;;;;;9.13;5.45;;;;;;;;;;5023108;28;20181;-85
2022/07/15 10:48:45;;;;;;;6.55;5.25;;;;;;;;;;5024434;28;20050;-85
2022/07/15 10:51:12;;;;;;;7.78;4.90;;;;;;;;;;5025135;28;20025;-85
2022/07/15 10:53:46;;;;;;;6.88;5.25;;;;;;;;;;5023275;28;20041;-85
2022/07/15 10:56:42;;;;;;;8.88;6.15;;;;;;;;;;5025881;28;20479;-79
2022/07/15 10:59:11;;;;;;;8.05;5.70;;;;;;;;;;5020766;28;20046;-83
2022/07/15 11:01:38;;;;;;;10.40;5.50;;;;;;;;;;5025759;28;20053;-85
2022/07/15 11:04:12;;;;;;;6.75;5.13;;;;;;;;;;5025690;28;20037;-84
2022/07/15 11:06:56;;;;;;;;;;;;;;;;;;5026826;28;20038;-85
2022/07/15 11:09:48;;;;;;;8.55;5.15;;;;;;;;;;5026485;28;19919;-83
2022/07/15 11:12:20;;;;;;;8.07;5.00;;;;;;;;;;5025898;28;20034;-85
2022/07/15 11:14:59;;;;;;;6.60;5.20;;;;;;;;;;5025576;28;20038;-81
2022/07/15 11:17:39;;;;;;;9.23;5.40;;;;;;;;;;5023936;28;20045;-85
2022/07/15 11:20:15;;;;;;;8.60;5.30;;;;;;;;;;5023640;28;20431;-84
2022/07/15 11:22:43;;;;;;;10.80;5.60;;;;;;;;;;5024289;28;20494;-85
2022/07/15 11:25:37;;;;;;;8.68;4.82;;;;;;;;;;5021213;28;20167;-85
2022/07/15 11:28:06;;;;;;;7.22;5.43;;;;;;;;;;5018605;28;20033;-84
2022/07/15 11:30:36;;;;;;;8.43;5.50;;;;;;;;;;5018844;28;20125;-84
2022/07/15 11:33:06;;;;;;;9.02;4.70;;;;;;;;;;5000729;28;20550;-83
2022/07/15 11:35:46;;;;;;;6.65;4.80;;;;;;;;;;5017527;28;20046;-83
2022/07/15 11:38:11;;;;;;;8.73;4.78;;;;;;;;;;5017871;28;20042;-84
2022/07/15 11:46:12;;;;;;;7.85;4.85;;;;;;;;;;5016432;28;20042;-84
2022/07/15 11:48:38;;;;;;;7.95;4.82;;;;;;;;;;5018375;28;20045;-83
2022/07/15 11:51:06;;;;;;;8.32;5.10;;;;;;;;;;5018239;28;20545;-84
2022/07/15 11:53:40;;;;;;;6.97;4.78;;;;;;;;;;5017956;28;20514;-84
2022/07/15 11:56:07;;;;;;;8.93;5.22;;;;;;;;;;5016366;28;20038;-84
2022/07/15 11:58:39;;;;;;;7.38;5.25;;;;;;;;;;5016170;28;20042;-83
2022/07/15 12:01:11;;;;;;;7.15;4.70;;;;;;;;;;5017565;28;20057;-83
2022/07/15 12:03:39;;;;;;;10.85;5.15;;;;;;;;;;5019439;28;20046;-84
2022/07/15 12:06:12;;;;;;;6.38;4.53;;;;;;;;;;5015616;28;20426;-83
2022/07/15 12:08:43;;;;;;;7.63;4.90;;;;;;;;;;5017188;28;20029;-83
2022/07/15 12:11:20;;;;;;;6.05;4.03;;;;;;;;;;5015142;28;20045;-83
2022/07/15 12:14:01;;;;;;;9.10;4.90;;;;;;;;;;5015888;28;20037;-83
2022/07/15 12:16:29;;;;;;;8.63;4.60;;;;;;;;;;5016925;28;20034;-84
2022/07/15 12:18:57;;;;;;;7.32;4.60;;;;;;;;;;5015015;28;20122;-82
2022/07/15 12:21:23;;;;;;;6.18;4.22;;;;;;;;;;5018981;28;20533;-83
2022/07/15 12:24:08;;;;;;;7.25;4.82;;;;;;;;;;5018126;28;20038;-82
2022/07/15 12:26:38;;;;;;;7.35;4.45;;;;;;;;;;5016831;28;20049;-83
2022/07/15 12:29:06;;;;;;;7.78;4.55;;;;;;;;;;5016624;28;20038;-82
2022/07/15 12:31:34;;;;;;;7.63;4.88;;;;;;;;;;5017838;28;20033;-82
2022/07/15 12:34:00;;;;;;;8.52;4.63;;;;;;;;;;5018827;28;20048;-82
2022/07/15 12:36:28;;;;;;;8.35;4.85;;;;;;;;;;5019246;28;20132;-82
2022/07/15 12:39:06;;;;;;;10.35;4.90;;;;;;;;;;5023192;28;20053;-82
2022/07/15 12:41:32;;;;;;;6.57;4.45;;;;;;;;;;5019428;28;20069;-83
2022/07/15 12:44:01;;;;;;;6.13;4.28;;;;;;;;;;5018444;28;20046;-82
2022/07/15 12:46:56;;;;;;;9.57;4.53;;;;;;;;;;5019311;28;20114;-83
2022/07/15 12:49:51;;;;;;;8.32;4.32;;;;;;;;;;5016940;28;20498;-83
2022/07/15 12:52:20;;;;;;;6.97;4.38;;;;;;;;;;5017742;28;20033;-83
2022/07/15 12:54:46;;;;;;;7.32;4.72;;;;;;;;;;5017848;28;20509;-83
2022/07/15 12:57:33;;;;;;;8.38;4.80;;;;;;;;;;5018742;28;20018;-83
2022/07/15 12:59:58;;;;;;;8.63;4.70;;;;;;;;;;5019726;28;20037;-83
2022/07/15 13:02:25;;;;;;;8.73;4.80;;;;;;;;;;5018030;28;20095;-83
2022/07/15 13:04:50;;;;;;;6.80;4.40;;;;;;;;;;5018919;28;20030;-83
2022/07/15 13:07:17;;;;;;;8.20;4.60;;;;;;;;;;5017668;28;20041;-84
2022/07/15 13:09:43;;;;;;;8.38;4.50;;;;;;;;;;5017950;28;20526;-82
2022/07/15 13:12:10;;;;;;;9.50;4.78;;;;;;;;;;5017855;28;20120;-83
2022/07/15 13:14:39;;;;;;;6.60;4.85;;;;;;;;;;5016746;28;20053;-81
2022/07/15 13:17:05;;;;;;;7.13;4.15;;;;;;;;;;5015386;28;20030;-83
2022/07/15 13:19:32;;;;;;;8.43;4.70;;;;;;;;;;5014921;28;20026;-83
2022/07/15 13:21:59;;;;;;;7.00;4.28;;;;;;;;;;5015388;28;20025;-83
2022/07/15 13:24:25;;;;;;;6.40;4.32;;;;;;;;;;5015502;28;20041;-83
2022/07/15 13:26:50;;;;;;;8.05;4.55;;;;;;;;;;5016077;28;20034;-83
2022/07/15 13:29:16;;;;;;;9.98;4.45;;;;;;;;;;5014648;28;20453;-83
2022/07/15 13:31:41;;;;;;;7.97;4.70;;;;;;;;;;5015362;28;20049;-82
2022/07/15 13:34:07;;;;;;;6.53;4.22;;;;;;;;;;5014741;28;20080;-83
2022/07/15 13:36:33;;;;;;;10.10;4.22;;;;;;;;;;5016126;28;20025;-83
2022/07/15 13:38:58;;;;;;;7.88;4.30;;;;;;;;;;5014782;28;20509;-83
2022/07/15 13:41:23;;;;;;;6.32;3.95;;;;;;;;;;5015939;28;20034;-83
2022/07/15 13:43:49;;;;;;;6.25;4.43;;;;;;;;;;5017630;28;20422;-82
2022/07/15 13:46:14;;;;;;;6.22;4.07;;;;;;;;;;5016695;28;20067;-83
2022/07/15 13:48:40;;;;;;;6.57;4.80;;;;;;;;;;5018203;28;20501;-83
2022/07/15 13:51:24;;;;;;;8.70;4.40;;;;;;;;;;5019166;28;20048;-84
2022/07/15 13:53:55;;;;;;;6.22;3.90;;;;;;;;;;5017642;28;20491;-84
2022/07/15 13:56:21;;;;;;;9.15;4.25;;;;;;;;;;5017821;28;20032;-83
2022/07/15 13:58:48;;;;;;;11.65;4.45;;;;;;;;;;5022318;28;20120;-84
2022/07/15 14:01:14;;;;;;;5.82;4.28;;;;;;;;;;5011607;28;20064;-83
2022/07/15 14:03:40;;;;;;;6.00;4.28;;;;;;;;;;5003798;28;20049;-84
2022/07/15 14:06:06;;;;;;;7.95;3.97;;;;;;;;;;5022164;28;20038;-85
2022/07/15 14:08:31;;;;;;;7.35;4.13;;;;;;;;;;5021706;28;20037;-84
2022/07/15 14:10:57;;;;;;;9.55;4.30;;;;;;;;;;5021938;28;20197;-84
2022/07/15 14:13:23;;;;;;;7.03;3.90;;;;;;;;;;5020476;28;20033;-84
2022/07/15 14:15:48;;;;;;;7.25;3.85;;;;;;;;;;5020407;28;20030;-84
2022/07/15 14:18:15;;;;;;;9.48;4.25;;;;;;;;;;5021387;28;20402;-84
2022/07/15 14:20:45;;;;;;;5.50;3.70;;;;;;;;;;5021067;28;20574;-84
2022/07/15 14:23:12;;;;;;;7.03;3.72;;;;;;;;;;5021235;28;20038;-84
2022/07/15 14:25:37;;;;;;;6.07;3.67;;;;;;;;;;5021339;28;20117;-84
2022/07/15 14:28:03;;;;;;;7.20;3.95;;;;;;;;;;5021420;28;20065;-83
2022/07/15 14:30:29;;;;;;;6.57;3.80;;;;;;;;;;5021740;28;20034;-84
2022/07/15 14:32:54;;;;;;;7.93;4.18;;;;;;;;;;5021921;28;20029;-84
2022/07/15 14:35:21;;;;;;;8.98;3.75;;;;;;;;;;5021389;28;20514;-84
2022/07/15 14:37:47;;;;;;;7.78;3.65;;;;;;;;;;5019923;28;20108;-84
2022/07/15 14:40:13;;;;;;;6.00;3.40;;;;;;;;;;5022591;28;20419;-83
2022/07/15 14:42:39;;;;;;;5.57;3.75;;;;;;;;;;5020121;28;20026;-83
2022/07/15 14:45:05;;;;;;;5.65;3.50;;;;;;;;;;5020258;28;20033;-87
2022/07/15 14:47:31;;;;;;;5.18;3.80;;;;;;;;;;5021069;28;20117;-83
2022/07/15 14:49:56;;;;;;;7.70;3.90;;;;;;;;;;5037044;28;20540;-83
2022/07/15 14:52:22;;;;;;;8.55;3.58;;;;;;;;;;5022852;28;20030;-83
2022/07/15 14:54:48;;;;;;;8.18;3.83;;;;;;;;;;5020857;28;20044;-83
2022/07/15 14:57:13;;;;;;;7.55;3.70;;;;;;;;;;5019759;28;20042;-83
2022/07/15 14:59:39;;;;;;;5.57;3.90;;;;;;;;;;5020421;28;20037;-83
2022/07/15 15:02:06;;;;;;;6.80;3.88;;;;;;;;;;5021407;28;20030;-83
2022/07/15 15:04:31;;;;;;;5.75;3.50;;;;;;;;;;5021307;28;20076;-82
2022/07/15 15:06:57;;;;;;;8.35;3.50;;;;;;;;;;5020196;28;20033;-83
2022/07/15 15:09:22;;;;;;;5.25;3.50;;;;;;;;;;5019587;28;20487;-83
2022/07/15 15:11:48;;;;;;;6.38;3.58;;;;;;;;;;5018317;28;20119;-83
2022/07/15 15:14:13;;;;;;;5.10;3.47;;;;;;;;;;5018203;28;20037;-83
2022/07/15 15:16:39;;;;;;;6.72;3.90;;;;;;;;;;5017176;28;20061;-83